Time;durP1;ratioP1;P1;durP2;ratioP2;P2;SDS_P1;SDS_P2;PMS_P1;PMS_P2;Temp;Humidity;BMP_temperature;BMP_pressure;BME280_temperature;BME280_humidity;BME280_pressure;Samples;Min_cycle;Max_cycle;Signal;HPM_P1;HPM_P2
2023/03/18 00:00:44;;;;;;;;;;;16.80;46.00;;;;;;5045600;28;20309;-75
2023/03/18 00:03:10;;;;;;;;;;;16.80;46.10;;;;;;4998814;28;19928;-76
2023/03/18 00:05:35;;;;;;;;;;;16.80;46.10;;;;;;5009004;28;19978;-75
2023/03/18 00:08:01;;;;;;;;;;;16.80;46.10;;;;;;5020708;28;19913;-76
2023/03/18 00:10:27;;;;;;;;;;;16.80;46.20;;;;;;5011556;28;19928;-76
2023/03/18 00:12:52;;;;;;;;;;;16.80;46.20;;;;;;5030356;28;20401;-76
2023/03/18 00:15:18;;;;;;;;;;;16.80;46.30;;;;;;5028448;28;19948;-76
2023/03/18 00:17:44;;;;;;;;;;;16.70;46.30;;;;;;4998475;28;20227;-76
2023/03/18 00:20:11;;;;;;;;;;;16.70;46.20;;;;;;4992728;28;19921;-75
2023/03/18 00:22:37;;;;;;;;;;;16.70;46.20;;;;;;5023237;28;20000;-75
2023/03/18 00:25:03;;;;;;;;;;;16.70;46.30;;;;;;4992789;28;19983;-75
2023/03/18 00:27:29;;;;;;;;;;;16.70;46.30;;;;;;5008666;28;19931;-75
2023/03/18 00:29:55;;;;;;;;;;;16.70;46.30;;;;;;4992289;28;19914;-75
2023/03/18 00:32:21;;;;;;;;;;;16.70;46.30;;;;;;4999065;28;19956;-75
2023/03/18 00:34:47;;;;;;;;;;;16.70;46.40;;;;;;5008528;28;20085;-75
2023/03/18 00:37:17;;;;;;;;;;;16.70;46.50;;;;;;5020252;28;19960;-75
2023/03/18 00:39:44;;;;;;;;;;;16.70;46.40;;;;;;5012679;28;19952;-74
2023/03/18 00:42:11;;;;;;;;;;;16.70;46.40;;;;;;5021685;28;19913;-75
2023/03/18 00:44:38;;;;;;;;;;;16.70;46.50;;;;;;5011637;28;19913;-75
2023/03/18 00:47:04;;;;;;;;;;;16.70;46.70;;;;;;5012152;28;19913;-75
2023/03/18 00:49:30;;;;;;;;;;;16.60;46.60;;;;;;5028240;28;20561;-75
2023/03/18 00:51:55;;;;;;;;;;;16.60;46.50;;;;;;5028437;28;19932;-76
2023/03/18 00:54:21;;;;;;;;;;;16.70;46.60;;;;;;5031726;28;19913;-75
2023/03/18 00:56:46;;;;;;;;;;;16.60;46.50;;;;;;5014114;28;20039;-75
2023/03/18 00:59:12;;;;;;;;;;;16.70;46.70;;;;;;5030024;28;19913;-75
2023/03/18 01:01:38;;;;;;;;;;;16.60;47.20;;;;;;5033111;28;20471;-75
2023/03/18 01:04:03;;;;;;;;;;;16.60;46.80;;;;;;5031888;28;20330;-75
2023/03/18 01:06:30;;;;;;;;;;;16.60;46.80;;;;;;5012418;28;20346;-75
2023/03/18 01:08:55;;;;;;;;;;;16.60;46.80;;;;;;5027184;28;19913;-75
2023/03/18 01:11:21;;;;;;;;;;;16.60;46.80;;;;;;5014186;28;19929;-75
2023/03/18 01:13:47;;;;;;;;;;;16.50;46.80;;;;;;5011391;28;19914;-75
2023/03/18 01:16:13;;;;;;;;;;;16.60;46.90;;;;;;4995368;28;19913;-76
2023/03/18 01:18:39;;;;;;;;;;;16.60;46.90;;;;;;5015357;28;19925;-75
2023/03/18 01:21:05;;;;;;;;;;;16.50;46.80;;;;;;5031613;28;20327;-75
2023/03/18 01:23:30;;;;;;;;;;;16.50;46.80;;;;;;5028301;28;20029;-75
2023/03/18 01:25:56;;;;;;;;;;;16.50;46.80;;;;;;5009628;28;19913;-75
2023/03/18 01:28:21;;;;;;;;;;;16.50;46.80;;;;;;5031424;28;20008;-75
2023/03/18 01:30:47;;;;;;;;;;;16.50;46.90;;;;;;5030816;28;19913;-75
2023/03/18 01:33:12;;;;;;;;;;;16.50;46.90;;;;;;5033364;27;20282;-75
2023/03/18 01:35:38;;;;;;;;;;;16.50;46.90;;;;;;5031158;28;20290;-75
2023/03/18 01:38:04;;;;;;;;;;;16.50;47.00;;;;;;5029295;28;20308;-75
2023/03/18 01:40:30;;;;;;;;;;;16.50;46.90;;;;;;5014333;28;19920;-75
2023/03/18 01:42:56;;;;;;;;;;;16.50;47.10;;;;;;5030489;28;19932;-75
2023/03/18 01:45:27;;;;;;;;;;;16.50;47.10;;;;;;5013967;28;19917;-75
2023/03/18 01:47:53;;;;;;;;;;;16.50;47.10;;;;;;5037890;28;19909;-75
2023/03/18 01:50:20;;;;;;;;;;;16.40;47.70;;;;;;5030805;28;19920;-75
2023/03/18 01:52:46;;;;;;;;;;;16.50;47.10;;;;;;5029198;28;20388;-75
2023/03/18 01:55:13;;;;;;;;;;;16.50;47.20;;;;;;5031028;28;20034;-75
2023/03/18 01:57:40;;;;;;;;;;;16.40;47.10;;;;;;5014219;28;20135;-75
2023/03/18 02:00:06;;;;;;;;;;;16.40;47.20;;;;;;5030800;28;19920;-75
2023/03/18 02:02:32;;;;;;;;;;;16.40;47.20;;;;;;5013760;28;19909;-75
2023/03/18 02:04:58;;;;;;;;;;;16.40;47.20;;;;;;5013401;28;20008;-75
2023/03/18 02:07:25;;;;;;;;;;;16.40;47.30;;;;;;5027471;28;19935;-75
2023/03/18 02:09:50;;;;;;;;;;;16.40;47.30;;;;;;5014052;28;19921;-75
2023/03/18 02:12:18;;;;;;;;;;;16.40;47.30;;;;;;5013964;28;19965;-75
2023/03/18 02:14:44;;;;;;;;;;;16.50;47.30;;;;;;5012052;28;19944;-75
2023/03/18 02:17:10;;;;;;;;;;;16.50;47.30;;;;;;5030247;28;19909;-75
2023/03/18 02:19:54;;;;;;;;;;;16.50;47.10;;;;;;5015005;28;19915;-75
2023/03/18 02:22:25;;;;;;;;;;;16.50;47.00;;;;;;5032373;28;20304;-75
2023/03/18 02:24:51;;;;;;;;;;;16.60;46.80;;;;;;5030406;28;19909;-75
2023/03/18 02:27:21;;;;;;;;;;;16.70;46.70;;;;;;5030291;28;20402;-75
2023/03/18 02:29:47;;;;;;;;;;;16.80;46.50;;;;;;5015282;28;19917;-75
2023/03/18 02:32:12;;;;;;;;;;;17.00;46.30;;;;;;5019226;27;19935;-75
2023/03/18 02:34:39;;;;;;;;;;;17.20;46.00;;;;;;5048350;27;19975;-75
2023/03/18 02:37:06;;;;;;;;;;;17.40;45.60;;;;;;5009846;28;19920;-75
2023/03/18 02:39:32;;;;;;;;;;;17.60;45.20;;;;;;5010524;28;19969;-75
2023/03/18 02:41:58;;;;;;;;;;;17.80;44.90;;;;;;5010521;28;19913;-75
2023/03/18 02:44:23;;;;;;;;;;;17.90;44.60;;;;;;5010542;28;19910;-75
2023/03/18 02:46:56;;;;;;;;;;;18.10;44.40;;;;;;5010511;28;19996;-75
2023/03/18 02:49:22;;;;;;;;;;;18.10;44.20;;;;;;5010890;28;19958;-75
2023/03/18 02:51:48;;;;;;;;;;;18.10;44.20;;;;;;5010338;28;19982;-75
2023/03/18 02:54:17;;;;;;;;;;;18.10;44.20;;;;;;5010394;28;20375;-75
2023/03/18 02:56:42;;;;;;;;;;;18.00;44.20;;;;;;5011026;28;19909;-75
2023/03/18 02:59:08;;;;;;;;;;;18.00;44.40;;;;;;4993802;28;19913;-75
2023/03/18 03:01:34;;;;;;;;;;;17.90;44.70;;;;;;5028423;28;20480;-75
2023/03/18 03:03:59;;;;;;;;;;;17.80;44.80;;;;;;5029897;28;19909;-75
2023/03/18 03:06:25;;;;;;;;;;;17.70;44.90;;;;;;5032063;28;19913;-75
2023/03/18 03:08:51;;;;;;;;;;;17.70;45.10;;;;;;5013247;28;20363;-75
2023/03/18 03:11:16;;;;;;;;;;;17.60;45.20;;;;;;5007503;28;19996;-75
2023/03/18 03:13:44;;;;;;;;;;;17.60;45.40;;;;;;5028040;28;19913;-75
2023/03/18 03:16:09;;;;;;;;;;;17.50;45.40;;;;;;5029749;28;19916;-75
2023/03/18 03:18:35;;;;;;;;;;;17.50;45.60;;;;;;5013371;28;19909;-75
2023/03/18 03:21:00;;;;;;;;;;;17.40;45.60;;;;;;5013121;28;19983;-75
2023/03/18 03:23:26;;;;;;;;;;;17.40;45.80;;;;;;5026867;28;19935;-75
2023/03/18 03:25:51;;;;;;;;;;;17.30;46.40;;;;;;5021725;28;19913;-75
2023/03/18 03:28:17;;;;;;;;;;;17.30;45.80;;;;;;5013360;28;19916;-75
2023/03/18 03:30:43;;;;;;;;;;;17.30;46.00;;;;;;5012615;28;19913;-75
2023/03/18 03:33:08;;;;;;;;;;;17.20;45.90;;;;;;5108169;27;20279;-75
2023/03/18 03:35:34;;;;;;;;;;;17.20;46.00;;;;;;5116087;27;20706;-75
2023/03/18 03:38:00;;;;;;;;;;;17.20;46.00;;;;;;5133232;27;19907;-75
2023/03/18 03:40:26;;;;;;;;;;;17.20;46.10;;;;;;5028830;27;19913;-75
2023/03/18 03:42:52;;;;;;;;;;;17.20;46.10;;;;;;5012947;28;19916;-75
2023/03/18 03:45:18;;;;;;;;;;;17.10;46.20;;;;;;5012259;28;19913;-75
2023/03/18 03:47:45;;;;;;;;;;;17.10;46.30;;;;;;5013098;28;20370;-75
2023/03/18 03:50:10;;;;;;;;;;;17.00;46.30;;;;;;5013001;28;19917;-75
2023/03/18 03:52:37;;;;;;;;;;;17.00;46.40;;;;;;5021963;28;19920;-75
2023/03/18 03:55:03;;;;;;;;;;;17.00;46.50;;;;;;5009311;28;19917;-75
2023/03/18 03:57:29;;;;;;;;;;;17.00;46.50;;;;;;5009644;28;19960;-75
2023/03/18 03:59:55;;;;;;;;;;;17.00;46.50;;;;;;5014549;28;19955;-75
2023/03/18 04:02:22;;;;;;;;;;;17.00;46.50;;;;;;5011427;28;20264;-75
2023/03/18 04:04:48;;;;;;;;;;;17.00;46.50;;;;;;5009392;28;19913;-75
2023/03/18 04:07:14;;;;;;;;;;;17.00;46.50;;;;;;4994277;28;19936;-75
2023/03/18 04:09:40;;;;;;;;;;;17.00;46.50;;;;;;5009008;28;19918;-75
2023/03/18 04:12:06;;;;;;;;;;;17.00;46.50;;;;;;5009212;28;19909;-75
2023/03/18 04:14:31;;;;;;;;;;;17.10;46.50;;;;;;4992890;28;20334;-75
2023/03/18 04:16:59;;;;;;;;;;;17.10;46.50;;;;;;5008968;28;19909;-75
2023/03/18 04:19:26;;;;;;;;;;;17.10;46.50;;;;;;5008905;28;19915;-75
2023/03/18 04:21:52;;;;;;;;;;;17.10;46.40;;;;;;5008833;28;19914;-75
2023/03/18 04:24:18;;;;;;;;;;;17.10;46.40;;;;;;4994904;28;19933;-75
2023/03/18 04:26:43;;;;;;;;;;;17.10;46.50;;;;;;5027844;28;20379;-75
2023/03/18 04:29:09;;;;;;;;;;;17.10;46.40;;;;;;5028459;28;20331;-75
2023/03/18 04:31:34;;;;;;;;;;;17.10;46.40;;;;;;5027924;28;19966;-75
2023/03/18 04:34:00;;;;;;;;;;;17.20;46.50;;;;;;5012158;28;19921;-75
2023/03/18 04:36:25;;;;;;;;;;;17.20;46.40;;;;;;5017784;28;19926;-75
2023/03/18 04:38:51;;;;;;;;;;;17.20;46.40;;;;;;4992569;28;20271;-75
2023/03/18 04:41:16;;;;;;;;;;;17.20;46.50;;;;;;5010986;28;20012;-75
2023/03/18 04:43:43;;;;;;;;;;;17.20;46.50;;;;;;5009822;28;19917;-75
2023/03/18 04:46:09;;;;;;;;;;;17.20;46.50;;;;;;5008955;28;19913;-74
2023/03/18 04:48:36;;;;;;;;;;;17.20;46.50;;;;;;5008087;28;20306;-74
2023/03/18 04:51:01;;;;;;;;;;;17.10;46.50;;;;;;5008806;28;19962;-75
2023/03/18 04:53:27;;;;;;;;;;;17.10;46.60;;;;;;5008745;28;20352;-75
2023/03/18 04:55:52;;;;;;;;;;;17.10;46.60;;;;;;4991927;28;19917;-75
2023/03/18 04:58:18;;;;;;;;;;;17.10;46.60;;;;;;5077898;28;19917;-75
2023/03/18 05:00:43;;;;;;;;;;;17.10;46.70;;;;;;5088539;28;20011;-75
2023/03/18 05:03:10;;;;;;;;;;;17.10;46.80;;;;;;5010454;28;19924;-75
2023/03/18 05:05:35;;;;;;;;;;;17.10;46.80;;;;;;5012821;28;19914;-75
2023/03/18 05:08:01;;;;;;;;;;;17.10;46.80;;;;;;5011578;28;19924;-74
2023/03/18 05:10:26;;;;;;;;;;;17.00;46.80;;;;;;5014799;28;19921;-75
2023/03/18 05:12:52;;;;;;;;;;;17.10;46.90;;;;;;5008593;28;20578;-75
2023/03/18 05:15:18;;;;;;;;;;;17.00;46.90;;;;;;4991535;28;20326;-75
2023/03/18 05:17:43;;;;;;;;;;;17.10;47.00;;;;;;5008670;28;19918;-75
2023/03/18 05:20:09;;;;;;;;;;;17.00;46.90;;;;;;4991868;28;20287;-75
2023/03/18 05:22:35;;;;;;;;;;;17.00;46.90;;;;;;4992233;28;19952;-75
2023/03/18 05:25:01;;;;;;;;;;;17.00;47.00;;;;;;5007912;28;19913;-75
2023/03/18 05:27:27;;;;;;;;;;;17.00;47.00;;;;;;4991658;28;19955;-75
2023/03/18 05:29:52;;;;;;;;;;;17.00;47.00;;;;;;5007977;28;19909;-74
2023/03/18 05:32:18;;;;;;;;;;;17.00;47.00;;;;;;5018342;28;19913;-75
2023/03/18 05:34:43;;;;;;;;;;;17.00;47.10;;;;;;5027829;28;19920;-75
2023/03/18 05:37:10;;;;;;;;;;;17.00;47.10;;;;;;5010121;28;19923;-75
2023/03/18 05:39:35;;;;;;;;;;;17.00;47.10;;;;;;5008937;28;19910;-73
2023/03/18 05:42:01;;;;;;;;;;;17.00;47.10;;;;;;5097751;28;19929;-73
2023/03/18 05:44:27;;;;;;;;;;;17.00;47.10;;;;;;5027347;28;19910;-74
2023/03/18 05:46:52;;;;;;;;;;;17.00;47.10;;;;;;5097650;28;19962;-75
2023/03/18 05:49:18;;;;;;;;;;;17.10;47.10;;;;;;5098072;28;20000;-75
2023/03/18 05:51:45;;;;;;;;;;;17.10;47.10;;;;;;5034279;28;19913;-75
2023/03/18 05:54:10;;;;;;;;;;;17.10;47.00;;;;;;5027370;28;20521;-75
2023/03/18 05:56:36;;;;;;;;;;;17.10;47.00;;;;;;5029676;28;20042;-75
2023/03/18 05:59:02;;;;;;;;;;;17.10;46.90;;;;;;5030610;28;19909;-75
2023/03/18 06:01:29;;;;;;;;;;;17.20;47.00;;;;;;5031325;28;19910;-75
2023/03/18 06:03:55;;;;;;;;;;;17.20;47.00;;;;;;5029118;28;20283;-74
2023/03/18 06:06:20;;;;;;;;;;;17.20;47.00;;;;;;5026310;28;19913;-75
2023/03/18 06:08:46;;;;;;;;;;;17.20;47.00;;;;;;5013817;28;19998;-75
2023/03/18 06:11:11;;;;;;;;;;;17.20;47.00;;;;;;5030390;28;19927;-75
2023/03/18 06:13:37;;;;;;;;;;;17.20;47.00;;;;;;5029577;28;20316;-75
2023/03/18 06:16:03;;;;;;;;;;;17.20;47.10;;;;;;5030646;28;19913;-75
2023/03/18 06:18:28;;;;;;;;;;;17.20;47.10;;;;;;5031985;28;19939;-75
2023/03/18 06:20:54;;;;;;;;;;;17.20;47.20;;;;;;5023995;28;20008;-75
2023/03/18 06:23:20;;;;;;;;;;;17.10;47.20;;;;;;5016394;28;19917;-75
2023/03/18 06:25:46;;;;;;;;;;;17.10;47.20;;;;;;5031498;28;20251;-75
2023/03/18 06:28:11;;;;;;;;;;;17.10;47.30;;;;;;5013999;28;19909;-75
2023/03/18 06:30:37;;;;;;;;;;;17.10;47.30;;;;;;5009194;28;19921;-75
2023/03/18 06:33:03;;;;;;;;;;;17.10;47.30;;;;;;5024739;28;20050;-75
2023/03/18 06:35:30;;;;;;;;;;;17.10;47.30;;;;;;4993930;28;20417;-75
2023/03/18 06:37:55;;;;;;;;;;;17.10;47.30;;;;;;5010926;28;20343;-75
2023/03/18 06:40:21;;;;;;;;;;;17.10;47.30;;;;;;4993734;28;19944;-74
2023/03/18 06:42:46;;;;;;;;;;;17.10;47.40;;;;;;5010733;28;19913;-74
2023/03/18 06:45:12;;;;;;;;;;;17.10;47.40;;;;;;5010036;28;20274;-75
2023/03/18 06:47:38;;;;;;;;;;;17.10;47.40;;;;;;5011061;28;20010;-75
2023/03/18 06:50:04;;;;;;;;;;;17.10;47.40;;;;;;5009944;28;20419;-75
2023/03/18 06:52:30;;;;;;;;;;;17.10;47.40;;;;;;5010449;28;20016;-75
2023/03/18 06:54:55;;;;;;;;;;;17.10;47.40;;;;;;5010395;28;20058;-74
2023/03/18 06:57:21;;;;;;;;;;;17.10;47.50;;;;;;5022178;28;19917;-75
2023/03/18 06:59:46;;;;;;;;;;;17.10;47.50;;;;;;4999456;28;19924;-75
2023/03/18 07:02:12;;;;;;;;;;;17.10;47.60;;;;;;5024643;28;20269;-75
2023/03/18 07:04:37;;;;;;;;;;;17.10;47.60;;;;;;5010512;28;19913;-75
2023/03/18 07:07:04;;;;;;;;;;;17.10;47.70;;;;;;5010099;28;19914;-75
2023/03/18 07:09:30;;;;;;;;;;;17.10;47.60;;;;;;5009851;28;19917;-75
2023/03/18 07:11:55;;;;;;;;;;;17.10;47.70;;;;;;4993640;28;19914;-75
2023/03/18 07:14:21;;;;;;;;;;;17.00;47.70;;;;;;4993221;28;19949;-75
2023/03/18 07:16:47;;;;;;;;;;;17.00;47.70;;;;;;5001789;28;19943;-75
2023/03/18 07:19:12;;;;;;;;;;;17.00;47.80;;;;;;4993657;28;19920;-75
2023/03/18 07:21:39;;;;;;;;;;;17.00;47.90;;;;;;5014740;28;19966;-75
2023/03/18 07:24:05;;;;;;;;;;;17.00;47.90;;;;;;5013440;28;19909;-75
2023/03/18 07:26:30;;;;;;;;;;;17.00;47.90;;;;;;5019483;28;19921;-74
2023/03/18 07:28:56;;;;;;;;;;;17.00;47.90;;;;;;5019762;28;20267;-75
2023/03/18 07:31:22;;;;;;;;;;;17.00;47.90;;;;;;5020594;28;19955;-75
2023/03/18 07:33:48;;;;;;;;;;;17.00;48.00;;;;;;5016359;28;19990;-75
2023/03/18 07:36:14;;;;;;;;;;;17.00;48.00;;;;;;5015619;28;20401;-75
2023/03/18 07:38:39;;;;;;;;;;;17.00;48.00;;;;;;5018916;28;19913;-75
2023/03/18 07:41:05;;;;;;;;;;;17.00;48.00;;;;;;5014445;28;19909;-75
2023/03/18 07:43:30;;;;;;;;;;;17.10;48.10;;;;;;5012210;28;19985;-75
2023/03/18 07:45:55;;;;;;;;;;;17.00;48.10;;;;;;5000719;28;19913;-75
2023/03/18 07:48:21;;;;;;;;;;;17.10;48.80;;;;;;5018767;28;19909;-75
2023/03/18 07:50:47;;;;;;;;;;;17.10;48.20;;;;;;4996755;28;19913;-75
2023/03/18 07:53:13;;;;;;;;;;;17.10;48.20;;;;;;4997267;28;20363;-75
2023/03/18 07:55:39;;;;;;;;;;;17.10;48.20;;;;;;5011884;28;20305;-75
2023/03/18 07:58:06;;;;;;;;;;;17.10;48.20;;;;;;5029493;28;19970;-75
2023/03/18 08:00:31;;;;;;;;;;;17.10;48.30;;;;;;5006499;28;20250;-75
2023/03/18 08:02:57;;;;;;;;;;;17.10;48.30;;;;;;5071257;28;19913;-75
2023/03/18 08:05:23;;;;;;;;;;;17.10;48.20;;;;;;5028756;28;19920;-75
2023/03/18 08:07:48;;;;;;;;;;;17.10;48.20;;;;;;5012642;28;19998;-75
2023/03/18 08:10:14;;;;;;;;;;;17.10;48.30;;;;;;5012390;28;19921;-75
2023/03/18 08:12:41;;;;;;;;;;;17.10;48.20;;;;;;5007069;28;19924;-75
2023/03/18 08:15:08;;;;;;;;;;;17.10;48.20;;;;;;5008989;28;19913;-75
2023/03/18 08:17:33;;;;;;;;;;;17.10;48.30;;;;;;5005420;28;20308;-75
2023/03/18 08:19:59;;;;;;;;;;;17.10;48.30;;;;;;5008897;28;20008;-75
2023/03/18 08:22:24;;;;;;;;;;;17.10;48.50;;;;;;5012394;28;19909;-75
2023/03/18 08:24:50;;;;;;;;;;;17.10;48.40;;;;;;5028577;28;19909;-75
2023/03/18 08:27:16;;;;;;;;;;;17.10;48.50;;;;;;5028384;28;20387;-75
2023/03/18 08:29:42;;;;;;;;;;;17.10;48.60;;;;;;5008061;28;19917;-75
2023/03/18 08:32:08;;;;;;;;;;;17.00;48.50;;;;;;5069070;28;19920;-75
2023/03/18 08:34:34;;;;;;;;;;;17.10;48.60;;;;;;5008520;28;19925;-75
2023/03/18 08:37:00;;;;;;;;;;;17.00;48.60;;;;;;5008096;28;19913;-75
2023/03/18 08:39:25;;;;;;;;;;;17.00;48.70;;;;;;5008883;28;20013;-75
2023/03/18 08:41:51;;;;;;;;;;;17.00;48.70;;;;;;5008276;28;19909;-75
2023/03/18 08:44:16;;;;;;;;;;;17.10;48.80;;;;;;5010077;28;19914;-75
2023/03/18 08:46:42;;;;;;;;;;;17.00;48.80;;;;;;5009507;28;20401;-75
2023/03/18 08:49:09;;;;;;;;;;;17.00;48.80;;;;;;5027655;28;19970;-75
2023/03/18 08:51:34;;;;;;;;;;;17.00;48.90;;;;;;5012070;28;20005;-75
2023/03/18 08:54:00;;;;;;;;;;;17.00;49.00;;;;;;5029722;28;20345;-75
2023/03/18 08:56:26;;;;;;;;;;;16.90;48.90;;;;;;5027960;28;19909;-74
2023/03/18 08:58:51;;;;;;;;;;;17.00;49.00;;;;;;5025673;28;19913;-75
2023/03/18 09:01:18;;;;;;;;;;;17.00;49.00;;;;;;5015058;28;20305;-75
2023/03/18 09:03:44;;;;;;;;;;;17.00;49.00;;;;;;5009009;28;19939;-75
2023/03/18 09:06:10;;;;;;;;;;;17.00;49.00;;;;;;5014070;28;19917;-75
2023/03/18 09:08:35;;;;;;;;;;;17.00;49.00;;;;;;5008505;28;19952;-75
2023/03/18 09:11:01;;;;;;;;;;;17.00;49.00;;;;;;4991781;28;19967;-75
2023/03/18 09:13:26;;;;;;;;;;;17.00;49.00;;;;;;4993717;28;19916;-75
2023/03/18 09:15:52;;;;;;;;;;;17.00;49.00;;;;;;4995175;28;19937;-75
2023/03/18 09:18:17;;;;;;;;;;;17.00;49.10;;;;;;5005820;28;19981;-74
2023/03/18 09:20:44;;;;;;;;;;;17.00;49.10;;;;;;5016883;28;19961;-75
2023/03/18 09:23:10;;;;;;;;;;;17.00;49.10;;;;;;5017741;28;19917;-75
2023/03/18 09:25:35;;;;;;;;;;;17.00;49.10;;;;;;5006099;28;19917;-75
2023/03/18 09:28:01;;;;;;;;;;;17.00;49.10;;;;;;4994032;28;19939;-75
2023/03/18 09:30:26;;;;;;;;;;;17.10;49.10;;;;;;5031126;28;19909;-75
2023/03/18 09:32:52;;;;;;;;;;;17.10;49.10;;;;;;5005358;28;19922;-75
2023/03/18 09:35:18;;;;;;;;;;;17.10;49.00;;;;;;5019398;28;20443;-75
2023/03/18 09:37:43;;;;;;;;;;;17.20;49.00;;;;;;5025264;28;20004;-75
2023/03/18 09:40:11;;;;;;;;;;;17.10;49.00;;;;;;4997574;28;20478;-75
2023/03/18 09:42:50;;;;;;;;;;;17.10;49.10;;;;;;4995104;28;19920;-75
2023/03/18 09:45:15;;;;;;;;;;;17.10;49.10;;;;;;5011131;28;19909;-76
2023/03/18 09:47:45;;;;;;;;;;;17.10;49.10;;;;;;5012880;28;20001;-76
2023/03/18 09:50:10;;;;;;;;;;;17.20;49.20;;;;;;5010911;28;19948;-76
2023/03/18 09:52:38;;;;;;;;;;;17.20;49.20;;;;;;5015347;28;20055;-77
2023/03/18 09:55:16;;;;;;;;;;;17.20;49.20;;;;;;5009923;28;19929;-77
2023/03/18 09:57:42;;;;;;;;;;;17.20;49.20;;;;;;5013397;28;19914;-75
2023/03/18 10:00:19;;;;;;;;;;;17.20;49.30;;;;;;5025510;28;19943;-75
2023/03/18 10:03:11;;;;;;;;;;;17.20;49.60;;;;;;5009923;28;20015;-75
2023/03/18 10:05:36;;;;;;;;;;;17.20;49.90;;;;;;5018049;28;19973;-75
2023/03/18 10:08:05;;;;;;;;;;;17.20;50.20;;;;;;5011009;28;20351;-75
2023/03/18 10:10:35;;;;;;;;;;;17.20;50.60;;;;;;5014972;28;20387;-75
2023/03/18 10:13:06;;;;;;;;;;;17.10;51.20;;;;;;5018833;28;19914;-75
2023/03/18 10:15:36;;;;;;;;;;;17.10;51.50;;;;;;5016704;28;19921;-75
2023/03/18 10:18:02;;;;;;;;;;;17.10;52.00;;;;;;5011054;28;19936;-75
2023/03/18 10:20:36;;;;;;;;;;;17.10;52.90;;;;;;5010255;28;19924;-75
2023/03/18 10:23:05;;;;;;;;;;;17.10;52.60;;;;;;5010778;28;19910;-75
2023/03/18 10:25:44;;;;;;;;;;;17.00;53.20;;;;;;5007658;28;19964;-75
2023/03/18 10:28:29;;;;;;;;;;;17.00;53.40;;;;;;5011282;28;19975;-75
2023/03/18 10:31:14;;;;;;;;;;;17.00;53.80;;;;;;5010459;28;19914;-75
2023/03/18 10:33:45;;;;;;;;;;;17.00;54.20;;;;;;5024162;28;19977;-75
2023/03/18 10:36:12;;;;;;;;;;;17.00;54.30;;;;;;5030425;28;19951;-75
2023/03/18 10:38:45;;;;;;;;;;;17.00;54.20;;;;;;5003429;28;20378;-75
2023/03/18 10:41:14;;;;;;;;;;;17.00;54.20;;;;;;5017301;27;20002;-75
2023/03/18 10:43:40;;;;;;;;;;;17.00;54.10;;;;;;4997300;28;19917;-75
2023/03/18 10:46:08;;;;;;;;;;;17.10;54.20;;;;;;5011879;28;20404;-75
2023/03/18 10:48:35;;;;;;;;;;;17.10;54.10;;;;;;5004540;28;20484;-75
2023/03/18 10:51:09;;;;;;;;;;;17.10;54.00;;;;;;5010484;28;19909;-75
2023/03/18 10:53:39;;;;;;;;;;;17.10;53.80;;;;;;5012012;28;20436;-75
2023/03/18 10:56:05;;;;;;;;;;;17.10;53.80;;;;;;5010200;28;19996;-75
2023/03/18 10:58:31;;;;;;;;;;;17.20;53.80;;;;;;5027019;28;19920;-74
2023/03/18 11:00:56;;;;;;;;;;;17.20;53.40;;;;;;5029123;28;19909;-75
2023/03/18 11:03:32;;;;;;;;;;;17.20;53.60;;;;;;5040050;27;19920;-74
2023/03/18 11:05:58;;;;;;;;;;;17.20;53.50;;;;;;5007155;28;19919;-75
2023/03/18 11:08:34;;;;;;;;;;;17.30;53.60;;;;;;5013835;28;20445;-75
2023/03/18 11:11:16;;;;;;;;;;;17.20;53.60;;;;;;5029714;28;20281;-74
2023/03/18 11:14:01;;;;;;;;;;;17.20;53.60;;;;;;5018347;28;19921;-75
2023/03/18 11:16:28;;;;;;;;;;;17.20;53.60;;;;;;5011673;28;19992;-75
2023/03/18 11:18:53;;;;;;;;;;;17.20;53.50;;;;;;5028038;28;20049;-75
2023/03/18 11:21:19;;;;;;;;;;;17.30;53.40;;;;;;5013381;28;19960;-75
2023/03/18 11:23:55;;;;;;;;;;;17.30;53.20;;;;;;5029800;28;19917;-75
2023/03/18 11:26:27;;;;;;;;;;;17.30;53.20;;;;;;5036284;28;19909;-75
2023/03/18 11:28:53;;;;;;;;;;;17.30;52.90;;;;;;5013066;28;19982;-75
2023/03/18 11:31:19;;;;;;;;;;;17.40;52.90;;;;;;5014700;28;20443;-73
2023/03/18 11:33:44;;;;;;;;;;;17.40;53.00;;;;;;5029679;28;19958;-73
2023/03/18 11:36:15;;;;;;;;;;;17.40;52.90;;;;;;5029604;28;19913;-73
2023/03/18 11:38:42;;;;;;;;;;;17.40;52.90;;;;;;5029558;28;20465;-73
2023/03/18 11:41:14;;;;;;;;;;;17.50;52.90;;;;;;5012785;28;20439;-73
2023/03/18 11:43:52;;;;;;;;;;;17.50;52.90;;;;;;5029086;28;19917;-74
2023/03/18 11:46:18;;;;;;;;;;;17.50;52.90;;;;;;5007893;28;20390;-74
2023/03/18 11:48:43;;;;;;;;;;;17.50;52.90;;;;;;5001689;28;19909;-73
2023/03/18 11:51:12;;;;;;;;;;;17.60;53.00;;;;;;5009963;28;20458;-73
2023/03/18 11:53:44;;;;;;;;;;;17.60;53.00;;;;;;5026541;28;19909;-74
2023/03/18 11:56:20;;;;;;;;;;;17.60;53.00;;;;;;5010285;28;19918;-75
2023/03/18 11:58:47;;;;;;;;;;;17.60;53.00;;;;;;4992661;28;19948;-74
2023/03/18 12:01:35;;;;;;;;;;;17.60;53.00;;;;;;5008336;28;19921;-75
2023/03/18 12:04:12;;;;;;;;;;;17.60;53.00;;;;;;5009369;28;20016;-75
2023/03/18 12:06:45;;;;;;;;;;;17.60;53.00;;;;;;5003390;28;19913;-76
2023/03/18 12:09:16;;;;;;;;;;;17.60;53.00;;;;;;4993114;28;19913;-75
2023/03/18 12:11:42;;;;;;;;;;;17.70;53.00;;;;;;4992808;28;19953;-76
2023/03/18 12:14:10;;;;;;;;;;;17.70;52.90;;;;;;5018869;28;20078;-76
2023/03/18 12:16:44;;;;;;;;;;;17.70;52.80;;;;;;5010471;28;20364;-76
2023/03/18 12:19:18;;;;;;;;;;;17.80;52.80;;;;;;4993021;28;19913;-76
2023/03/18 12:21:43;;;;;;;;;;;17.80;52.70;;;;;;5009406;28;19945;-76
2023/03/18 12:24:21;;;;;;;;;;;17.80;52.70;;;;;;5012571;28;20315;-76
2023/03/18 12:26:59;;;;;;;;;;;17.80;52.90;;;;;;5029857;28;19913;-76
2023/03/18 12:29:31;;;;;;;;;;;17.80;52.80;;;;;;5028503;28;20390;-76
2023/03/18 12:32:03;;;;;;;;;;;17.80;52.80;;;;;;5025021;28;19910;-74
2023/03/18 12:34:34;;;;;;;;;;;17.80;52.90;;;;;;5008681;28;19922;-74
2023/03/18 12:37:06;;;;;;;;;;;17.80;53.00;;;;;;5017646;28;20263;-74
2023/03/18 12:39:51;;;;;;;;;;;17.80;53.00;;;;;;5005554;28;19921;-74
2023/03/18 12:42:17;;;;;;;;;;;17.80;52.80;;;;;;5094271;28;19935;-74
2023/03/18 12:44:46;;;;;;;;;;;17.80;52.80;;;;;;5094052;28;20000;-73
2023/03/18 12:47:15;;;;;;;;;;;17.80;52.80;;;;;;5009610;28;19955;-73
2023/03/18 12:49:43;;;;;;;;;;;17.80;52.80;;;;;;5094597;28;20278;-74
2023/03/18 12:52:29;;;;;;;;;;;17.90;52.80;;;;;;5038900;28;19913;-74
2023/03/18 12:55:10;;;;;;;;;;;17.80;52.70;;;;;;5017702;28;20012;-74
2023/03/18 12:57:49;;;;;;;;;;;17.80;52.70;;;;;;5029570;28;20023;-74
2023/03/18 13:00:19;;;;;;;;;;;17.80;52.80;;;;;;5019086;28;19910;-74
2023/03/18 13:02:52;;;;;;;;;;;17.80;52.70;;;;;;5013536;28;20282;-75
2023/03/18 13:05:35;;;;;;;;;;;17.80;52.90;;;;;;5013784;28;19913;-74
2023/03/18 13:08:20;;;;;;;;;;;17.80;52.90;;;;;;5005443;28;20309;-74
2023/03/18 13:10:46;;;;;;;;;;;17.80;53.00;;;;;;5010834;28;20011;-75
2023/03/18 13:13:11;;;;;;;;;;;17.80;52.90;;;;;;4993402;28;20317;-75
2023/03/18 13:15:38;;;;;;;;;;;17.80;52.90;;;;;;5076854;28;19913;-75
2023/03/18 13:18:30;;;;;;;;;;;17.80;52.90;;;;;;5007856;28;19924;-74
2023/03/18 13:20:57;;;;;;;;;;;17.80;52.80;;;;;;5011685;28;19920;-74
2023/03/18 13:23:41;;;;;;;;;;;17.80;52.80;;;;;;4997870;28;20016;-74
2023/03/18 13:26:16;;;;;;;;;;;17.90;52.70;;;;;;5027782;28;19914;-74
2023/03/18 13:28:43;;;;;;;;;;;17.90;52.60;;;;;;5028872;28;20375;-75
2023/03/18 13:31:18;;;;;;;;;;;17.90;52.60;;;;;;5027964;28;19947;-74
2023/03/18 13:33:55;;;;;;;;;;;17.90;52.60;;;;;;5029227;28;19950;-74
2023/03/18 13:36:24;;;;;;;;;;;17.90;52.70;;;;;;5027889;28;19916;-75
2023/03/18 13:38:56;;;;;;;;;;;17.90;52.80;;;;;;5007299;28;20184;-74
2023/03/18 13:41:31;;;;;;;;;;;17.80;52.90;;;;;;5007657;28;20374;-75
2023/03/18 13:44:00;;;;;;;;;;;17.80;52.90;;;;;;5007613;28;19913;-75
2023/03/18 13:46:27;;;;;;;;;;;17.80;53.00;;;;;;5013040;28;19920;-75
2023/03/18 13:48:54;;;;;;;;;;;17.80;53.20;;;;;;5006967;28;20404;-75
2023/03/18 13:51:39;;;;;;;;;;;17.70;53.10;;;;;;5093972;28;19960;-75
2023/03/18 13:54:05;;;;;;;;;;;17.70;53.00;;;;;;5009713;28;19920;-75
2023/03/18 13:56:41;;;;;;;;;;;17.70;53.10;;;;;;5093548;28;19996;-75
2023/03/18 13:59:27;;;;;;;;;;;17.70;53.10;;;;;;5010717;28;19913;-75
2023/03/18 14:01:53;;;;;;;;;;;17.70;53.10;;;;;;5013593;28;19913;-75
2023/03/18 14:04:37;;;;;;;;;;;17.70;53.10;;;;;;5011089;28;19958;-75
2023/03/18 14:07:16;;;;;;;;;;;17.70;53.10;;;;;;5029204;28;19913;-75
2023/03/18 14:09:46;;;;;;;;;;;17.70;53.10;;;;;;5030576;28;19917;-75
2023/03/18 14:12:19;;;;;;;;;;;17.70;53.10;;;;;;5014319;28;19941;-75
2023/03/18 14:15:04;;;;;;;;;;;17.70;53.00;;;;;;5008515;28;19918;-74
2023/03/18 14:17:37;;;;;;;;;;;17.70;53.10;;;;;;4994866;28;19986;-75
2023/03/18 14:20:06;;;;;;;;;;;17.70;53.10;;;;;;5011002;28;19910;-75